Campanya meteocatpedra

Dades EMA Barcelona - Zona Universitària

?
?
Resum diari 22:30 TU
Dades diàries de l'estació meteorològica
Temperatura mitjana 23.3 °C
Temperatura màxima 28.5 °C 9:17 TU
Temperatura mínima 17.7 °C 4:01 TU
Humitat relativa mitjana 45%
Precipitació acumulada 0.0 mm
Ratxa màxima del vent (10 m) 31.7 km/h - 227º 15:09 TU
Pressió atmosfèrica mitjana 1018.3 hPa
Irradiació solar global 29.5 MJ/m2

El tram horari està expressat en Temps Universal (TU). Cal sumar una hora en horari d'hivern i dues en horari d'estiu per passar a l'hora oficial.

Barcelona - Zona Universitària

Metadades estació meteorol´gica
Municipi Barcelona
Comarca Barcelonès
Altitud 79 m
Data alta 17.04.2008
Estat actual Operativa
Dades de període
Període
TU
TM
°C
TX
°C
TN
°C
HRM
%
PPT
mm
VVM (10 m)
km/h
DVM (10 m)
graus
VVX (10 m)
km/h
PM
hPa
RS
W/m2
00:00 - 00:30 18.8 18.9 18.6 66 0.0 1.4 343 3.6 1019.7 0
00:30 - 01:00 18.6 18.9 18.4 69 0.0 0.7 47 3.2 1019.5 0
01:00 - 01:30 18.6 18.8 18.4 69 0.0 0.7 155 3.2 1019.2 0
01:30 - 02:00 18.7 18.9 18.6 67 0.0 1.1 233 4.3 1019.0 0
02:00 - 02:30 18.7 18.9 18.5 63 0.0 0.7 204 5.0 1019.0 0
02:30 - 03:00 18.5 18.7 18.3 63 0.0 0.4 1 2.9 1019.1 0
03:00 - 03:30 18.2 18.4 17.9 63 0.0 1.8 276 5.8 1019.2 0
03:30 - 04:00 17.8 17.9 17.7 65 0.0 1.8 10 5.8 1019.3 0
04:00 - 04:30 18.1 18.4 17.7 64 0.0 0.7 297 3.6 1019.3 0
04:30 - 05:00 18.2 18.5 18.0 64 0.0 4.3 254 7.2 1019.4 23
05:00 - 05:30 19.0 19.5 18.6 62 0.0 0.7 241 3.2 1019.4 83
05:30 - 06:00 20.4 21.2 19.5 58 0.0 1.1 95 3.2 1019.5 158
06:00 - 06:30 22.4 23.5 21.3 52 0.0 1.4 124 3.6 1019.4 255
06:30 - 07:00 24.0 24.4 23.6 45 0.0 2.5 171 7.2 1019.6 349
07:00 - 07:30 24.0 24.5 23.7 46 0.0 4.3 194 7.9 1019.7 442
07:30 - 08:00 25.0 25.8 24.4 42 0.0 2.9 173 8.3 1019.6 538
08:00 - 08:30 26.5 27.1 25.9 38 0.0 3.2 144 9.4 1019.4 624
08:30 - 09:00 27.3 27.8 26.8 36 0.0 3.6 137 10.1 1019.3 706
09:00 - 09:30 28.1 28.5 27.4 34 0.0 5.8 161 11.5 1019.0 776
09:30 - 10:00 27.4 28.1 26.8 39 0.0 9.7 173 20.5 1019.1 830
10:00 - 10:30 27.5 27.9 26.6 38 0.0 8.6 162 16.2 1019.1 886
10:30 - 11:00 27.4 27.8 27.1 36 0.0 7.9 171 14.8 1019.0 923
11:00 - 11:30 28.1 28.5 27.4 33 0.0 9.7 157 18.4 1018.7 951
11:30 - 12:00 28.0 28.4 27.6 30 0.0 11.5 177 19.4 1018.5 967
12:00 - 12:30 27.2 27.7 26.7 34 0.0 12.2 185 24.8 1018.5 963
12:30 - 13:00 27.1 27.5 26.8 33 0.0 13.7 200 26.3 1018.5 948
13:00 - 13:30 26.8 27.2 26.3 33 0.0 15.5 214 28.4 1018.4 916
13:30 - 14:00 27.5 28.1 26.7 28 0.0 14.4 219 25.6 1018.1 860
14:00 - 14:30 27.4 27.8 27.0 28 0.0 14.0 200 29.2 1017.8 797
14:30 - 15:00 27.8 28.4 27.2 28 0.0 12.2 198 24.8 1017.4 747
15:00 - 15:30 27.0 27.8 26.4 29 0.0 15.5 209 31.7 1017.3 671
15:30 - 16:00 26.6 27.2 26.1 30 0.0 15.1 207 30.2 1016.9 582
16:00 - 16:30 26.1 26.7 25.6 30 0.0 15.8 212 29.5 1016.8 487
16:30 - 17:00 25.8 26.1 25.4 33 0.0 14.4 210 28.1 1016.6 385
17:00 - 17:30 25.4 25.8 25.1 33 0.0 14.4 213 25.6 1016.7 281
17:30 - 18:00 24.7 25.1 24.3 34 0.0 12.6 215 22.7 1016.7 181
18:00 - 18:30 23.9 24.2 23.5 37 0.0 8.6 217 16.9 1016.9 59
18:30 - 19:00 23.0 23.4 22.5 39 0.0 9.4 220 18.4 1017.1 18
19:00 - 19:30 22.0 22.5 21.7 42 0.0 5.8 236 15.8 1017.2 1
19:30 - 20:00 21.2 21.7 21.0 45 0.0 2.9 217 5.0 1017.2 0
20:00 - 20:30 21.0 21.1 20.8 47 0.0 1.8 252 4.7 1017.2 0
20:30 - 21:00 21.0 21.1 20.8 47 0.0 0.0 193 1.8 1017.5 0
21:00 - 21:30 20.9 21.0 20.8 44 0.0 3.2 260 6.1 1017.6 0
21:30 - 22:00 20.7 20.9 20.3 45 0.0 3.2 306 8.3 1017.4 0
22:00 - 22:30 20.1 20.4 19.9 45 0.0 5.0 280 7.9 1017.3 0
22:30 - 23:00 20.6 20.9 20.4 44 0.0 4.7 260 9.0 1017.2 0

Les dades en taronja només han passat un control de qualitat automàtic. Resta pendent la seva validació definitiva.